Time;durP1;ratioP1;P1;durP2;ratioP2;P2;SDS_P1;SDS_P2;PMS_P1;PMS_P2;Temp;Humidity;BMP_temperature;BMP_pressure;BME280_temperature;BME280_humidity;BME280_pressure;Samples;Min_cycle;Max_cycle;Signal;HPM_P1;HPM_P2
2023/01/27 00:02:18;;;;;;;39.63;28.77;;;;;;;16.02;47.15;93157.91;4958132;28;20556;-90
2023/01/27 00:04:43;;;;;;;42.20;30.08;;;;;;;16.02;47.04;93157.91;4955593;28;20046;-91
2023/01/27 00:07:09;;;;;;;39.00;27.13;;;;;;;16.01;47.43;93151.72;4939185;28;20042;-90
2023/01/27 00:09:34;;;;;;;37.53;26.00;;;;;;;16.02;46.85;93155.91;4955618;28;20046;-90
2023/01/27 00:14:44;;;;;;;45.00;27.90;;;;;;;16.01;47.14;93157.16;4973854;28;20425;-90
2023/01/27 00:17:09;;;;;;;43.33;29.70;;;;;;;16.07;47.70;93157.13;4939457;28;20038;-92
2023/01/27 00:19:34;;;;;;;38.17;26.35;;;;;;;16.02;47.27;93155.91;4939160;28;20054;-90
2023/01/27 00:24:45;;;;;;;39.40;26.23;;;;;;;16.03;47.34;93168.28;4942138;28;20073;-91
2023/01/27 00:27:11;;;;;;;37.38;26.35;;;;;;;16.00;47.18;93166.59;4936141;28;20441;-91
2023/01/27 00:29:37;;;;;;;35.97;25.60;;;;;;;16.03;46.84;93156.63;4955187;28;20524;-90
2023/01/27 00:34:47;;;;;;;37.33;25.38;;;;;;;16.06;47.05;93161.09;4970809;28;20121;-90
2023/01/27 00:37:12;;;;;;;56.95;38.00;;;;;;;16.15;48.40;93154.63;4939657;28;20030;-90
2023/01/27 00:39:37;;;;;;;35.78;24.88;;;;;;;16.03;47.03;93162.09;4971037;28;20039;-92
2023/01/27 00:42:03;;;;;;;58.35;36.10;;;;;;;16.15;48.45;93149.91;4955189;28;20417;-90
2023/01/27 00:44:28;;;;;;;37.25;24.83;;;;;;;16.04;47.02;93161.59;4939258;28;20386;-90
2023/01/27 00:46:54;;;;;;;33.95;24.83;;;;;;;16.00;46.92;93152.94;4971277;28;20524;-90
2023/01/27 00:49:19;;;;;;;36.83;25.73;;;;;;;16.02;46.88;93155.19;4952140;28;20039;-90
2023/01/27 00:51:45;;;;;;;34.50;24.48;;;;;;;16.01;47.00;93153.69;4936113;28;20035;-90
2023/01/27 00:54:10;;;;;;;40.28;26.13;;;;;;;15.96;47.24;93155.19;4927798;28;20391;-91
2023/01/27 00:56:36;;;;;;;34.42;22.80;;;;;;;16.03;46.86;93156.63;4951945;28;20413;-92
2023/01/27 00:59:01;;;;;;;44.20;29.42;;;;;;;16.03;47.23;93165.56;4962986;28;20373;-90
2023/01/27 01:01:27;;;;;;;38.20;24.17;;;;;;;16.02;46.81;93155.91;4926928;28;20542;-90
2023/01/27 01:03:52;;;;;;;34.58;24.95;;;;;;;16.01;46.97;93157.16;4954811;28;20456;-90
2023/01/27 01:06:18;;;;;;;36.45;24.40;;;;;;;16.01;46.73;93165.34;4954622;28;20046;-91
2023/01/27 01:08:45;;;;;;;38.83;25.45;;;;;;;16.02;47.32;93149.72;4940560;28;20498;-91
2023/01/27 01:11:12;;;;;;;35.95;24.50;;;;;;;15.99;47.01;93159.66;4938071;28;20087;-90
2023/01/27 01:13:37;;;;;;;36.83;24.27;;;;;;;16.03;46.76;93165.56;4954779;28;20065;-91
2023/01/27 01:16:06;;;;;;;32.58;22.75;;;;;;;16.06;47.70;93161.84;4936142;28;20125;-90
2023/01/27 01:18:32;;;;;;;31.85;23.33;;;;;;;16.06;46.65;93148.19;4960797;28;20429;-91
2023/01/27 01:20:57;;;;;;;44.55;26.67;;;;;;;16.07;47.01;93151.66;4943440;28;20126;-90
2023/01/27 01:23:23;;;;;;;34.63;24.02;;;;;;;16.03;47.13;93156.63;4974044;28;20054;-90
2023/01/27 01:25:55;;;;;;;58.28;37.20;;;;;;;16.12;48.31;93167.28;4974318;28;20046;-91
2023/01/27 01:28:20;;;;;;;35.30;23.35;;;;;;;16.01;46.61;93154.44;4955123;28;20121;-90
2023/01/27 01:30:46;;;;;;;30.15;22.42;;;;;;;16.01;46.98;93148.97;4951308;28;20397;-90
2023/01/27 01:33:11;;;;;;;30.20;22.70;;;;;;;16.04;47.06;93147.22;4940857;28;20047;-90
2023/01/27 01:35:37;;;;;;;42.08;26.80;;;;;;;16.08;48.11;93151.16;4974696;28;20050;-90
2023/01/27 01:38:03;;;;;;;54.20;33.80;;;;;;;16.15;47.33;93152.63;4958128;28;20564;-90
2023/01/27 01:40:29;;;;;;;34.90;21.98;;;;;;;16.01;47.12;93151.72;4959001;28;20053;-89
2023/01/27 01:42:59;;;;;;;33.08;21.88;;;;;;;16.01;46.74;93145.50;4958563;28;20038;-90
2023/01/27 01:45:30;;;;;;;36.22;22.40;;;;;;;16.02;46.67;93134.09;4941460;28;20049;-91
2023/01/27 01:47:56;;;;;;;32.95;22.02;;;;;;;16.01;46.93;93148.97;4974612;28;20058;-91
2023/01/27 01:50:21;;;;;;;36.90;25.85;;;;;;;16.06;47.08;93148.19;4954647;28;20047;-90
2023/01/27 01:52:47;;;;;;;33.22;22.70;;;;;;;16.01;46.75;93150.97;4923662;28;20497;-90
2023/01/27 01:55:12;;;;;;;30.55;22.13;;;;;;;16.06;46.82;93150.19;4954946;28;20065;-91
2023/01/27 01:57:41;;;;;;;26.63;20.23;;;;;;;16.05;46.49;93146.72;4942305;28;20046;-90
2023/01/27 02:00:08;;;;;;;31.88;21.52;;;;;;;16.05;46.73;93151.44;4941987;28;20034;-91
2023/01/27 02:02:33;;;;;;;29.60;21.50;;;;;;;16.05;46.65;93154.16;4941915;28;20038;-90
2023/01/27 02:05:05;;;;;;;31.63;22.55;;;;;;;16.06;46.54;93147.47;4958027;28;20409;-91
2023/01/27 02:07:54;;;;;;;27.20;19.95;;;;;;;16.05;47.09;93154.16;4970099;28;20097;-90
2023/01/27 02:10:19;;;;;;;30.75;20.48;;;;;;;16.02;46.88;93144.28;4955097;28;20038;-90
2023/01/27 02:12:45;;;;;;;31.17;21.38;;;;;;;16.07;46.76;93144.22;4957959;28;20049;-91
2023/01/27 02:15:11;;;;;;;28.65;20.55;;;;;;;16.04;46.46;93139.03;4956400;28;20042;-90
2023/01/27 02:17:36;;;;;;;29.88;20.95;;;;;;;16.01;46.82;93131.88;4938797;28;20086;-90
2023/01/27 02:20:30;;;;;;;29.10;20.70;;;;;;;16.02;46.80;93134.09;4931994;28;20035;-90
2023/01/27 02:23:07;;;;;;;29.63;18.85;;;;;;;16.03;46.91;93140.28;4924420;28;20057;-90
2023/01/27 02:25:33;;;;;;;29.98;20.52;;;;;;;15.99;46.97;93137.84;4972009;28;20041;-90
2023/01/27 02:28:02;;;;;;;29.20;20.25;;;;;;;15.98;46.86;93143.78;4973337;28;20034;-90
2023/01/27 02:30:27;;;;;;;27.23;19.73;;;;;;;15.99;46.99;93134.38;4940420;28;20557;-90
2023/01/27 02:32:53;;;;;;;26.63;19.23;;;;;;;16.02;46.83;93136.81;4955092;28;20042;-91
2023/01/27 02:35:28;;;;;;;29.10;19.92;;;;;;;15.98;46.68;93143.78;4941016;28;20053;-90
2023/01/27 02:37:54;;;;;;;29.05;20.83;;;;;;;15.98;46.77;93141.81;4942485;28;20045;-91
2023/01/27 02:40:22;;;;;;;27.60;19.80;;;;;;;16.01;46.40;93135.34;4941051;28;20043;-91
2023/01/27 02:42:47;;;;;;;27.02;19.70;;;;;;;16.02;46.52;93128.63;4957317;28;20045;-90
2023/01/27 02:45:13;;;;;;;26.48;19.58;;;;;;;16.02;46.59;93131.34;4947406;28;20414;-91
2023/01/27 02:47:38;;;;;;;28.27;19.10;;;;;;;16.03;46.70;93135.56;4938516;28;20585;-90
2023/01/27 02:50:04;;;;;;;23.88;18.00;;;;;;;16.06;46.44;93128.38;4949543;28;20109;-90
2023/01/27 02:52:29;;;;;;;30.05;19.42;;;;;;;16.07;46.69;93130.59;4941094;28;20042;-90
2023/01/27 02:54:55;;;;;;;27.83;20.10;;;;;;;16.01;47.07;93132.63;4940260;28;20050;-91
2023/01/27 02:57:20;;;;;;;25.88;19.02;;;;;;;16.05;46.37;93135.81;4937031;28;20417;-91
2023/01/27 02:59:46;;;;;;;28.55;19.27;;;;;;;16.01;46.80;93131.88;4944588;28;20085;-90
2023/01/27 03:02:13;;;;;;;25.50;18.20;;;;;;;16.03;47.30;93132.84;4982489;28;20053;-90
2023/01/27 03:04:39;;;;;;;25.67;17.33;;;;;;;16.01;46.82;93129.16;4951331;28;20050;-91
2023/01/27 03:07:04;;;;;;;30.23;19.08;;;;;;;16.00;47.50;93136.59;4939830;28;20042;-91
2023/01/27 03:09:30;;;;;;;28.73;20.63;;;;;;;15.99;46.86;93134.38;4956781;28;20077;-91
2023/01/27 03:20:08;;;;;;;27.73;18.88;;;;;;;16.04;47.20;93137.06;4951176;28;20422;-91
2023/01/27 03:22:33;;;;;;;27.70;19.98;;;;;;;15.99;47.46;93134.38;4937396;28;20041;-90
2023/01/27 03:24:59;;;;;;;25.60;18.33;;;;;;;16.01;46.60;93140.06;4950658;28;20047;-90
2023/01/27 03:27:24;;;;;;;28.00;18.05;;;;;;;15.96;46.78;93138.09;4931284;28;20047;-90
2023/01/27 03:29:55;;;;;;;25.17;17.38;;;;;;;15.98;46.80;93141.06;4899278;29;20043;-90
2023/01/27 03:32:21;;;;;;;;;;;;;;;16.04;47.07;93136.31;4892005;29;20162;-90
2023/01/27 03:34:46;;;;;;;26.40;17.77;;;;;;;15.99;46.82;93146.00;4932325;29;19997;-91
2023/01/27 03:48:08;;;;;;;25.85;18.23;;;;;;;15.98;46.61;93128.16;4915363;29;20133;-91
2023/01/27 03:50:36;;;;;;;26.02;17.35;;;;;;;15.96;46.91;93133.38;4910509;29;20096;-91
2023/01/27 03:53:03;;;;;;;26.48;17.95;;;;;;;15.98;47.20;93135.59;4901506;29;20055;-91
2023/01/27 03:55:29;;;;;;;24.95;17.33;;;;;;;15.99;46.54;93126.19;4913217;29;20043;-91
2023/01/27 03:57:55;;;;;;;24.45;17.50;;;;;;;16.00;46.71;93131.13;4919466;29;20137;-90
2023/01/27 04:00:22;;;;;;;23.73;17.42;;;;;;;16.00;46.68;93133.13;4928558;28;20131;-90
2023/01/27 04:08:15;;;;;;;25.92;17.25;;;;;;;16.05;47.32;93122.19;4953558;28;20502;-90
2023/01/27 04:11:53;;;;;;;48.65;31.60;;;;;;;16.15;48.02;93124.63;4933445;29;20058;-91
2023/01/27 04:13:26;;;;;;;25.15;17.42;;;;;;;16.02;46.72;93117.72;4936964;28;20039;-90
2023/01/27 04:15:53;;;;;;;31.50;20.02;;;;;;;16.02;47.18;93123.19;4951411;28;20061;-91
2023/01/27 04:18:19;;;;;;;24.00;16.52;;;;;;;16.00;47.01;93124.94;4935689;28;20038;-90
2023/01/27 04:20:44;;;;;;;24.25;16.80;;;;;;;15.98;47.07;93122.72;4935720;28;20065;-90
2023/01/27 04:23:12;;;;;;;21.67;15.80;;;;;;;15.96;47.18;93136.09;4971780;28;20035;-91
2023/01/27 04:25:37;;;;;;;23.60;16.52;;;;;;;16.00;46.76;93131.13;4971562;28;20046;-90
2023/01/27 04:28:03;;;;;;;31.70;18.85;;;;;;;16.00;46.79;93136.59;4939260;28;20049;-90
2023/01/27 04:30:28;;;;;;;23.63;17.48;;;;;;;15.99;47.00;93129.66;4955014;28;20030;-90
2023/01/27 04:32:53;;;;;;;24.88;17.40;;;;;;;15.97;46.47;93125.94;4939606;28;20034;-91
2023/01/27 04:35:19;;;;;;;23.20;16.63;;;;;;;15.96;47.21;93135.38;4939366;28;20045;-89
2023/01/27 04:37:44;;;;;;;40.70;24.95;;;;;;;16.05;48.98;93127.63;4939541;28;20122;-90
2023/01/27 04:40:10;;;;;;;25.60;17.88;;;;;;;15.98;46.76;93135.59;4939376;28;20039;-91
2023/01/27 04:42:36;;;;;;;23.35;16.20;;;;;;;15.99;47.12;93148.00;4939662;28;20610;-91
2023/01/27 04:45:01;;;;;;;25.55;17.25;;;;;;;15.96;46.82;93152.47;4940112;28;20050;-91
2023/01/27 04:47:27;;;;;;;25.15;16.02;;;;;;;15.97;46.84;93145.78;4943361;28;20042;-90
2023/01/27 04:49:52;;;;;;;25.88;17.88;;;;;;;16.02;47.25;93134.09;4943114;28;20081;-90
2023/01/27 04:52:17;;;;;;;25.73;16.30;;;;;;;15.98;46.81;93139.06;4943244;28;20422;-91
2023/01/27 04:54:43;;;;;;;26.52;17.05;;;;;;;15.99;46.86;93142.53;4959482;28;20216;-90
2023/01/27 04:57:09;;;;;;;24.23;15.95;;;;;;;15.92;47.20;93138.34;4942808;28;20078;-91
2023/01/27 04:59:34;;;;;;;46.83;26.98;;;;;;;16.05;47.88;93137.78;4958828;28;20038;-91
2023/01/27 05:02:00;;;;;;;23.38;16.80;;;;;;;16.01;46.93;93140.81;4934857;29;20055;-91
2023/01/27 05:04:25;;;;;;;25.52;17.08;;;;;;;16.00;46.41;93135.84;4936158;28;20403;-90
2023/01/27 05:06:51;;;;;;;22.08;15.77;;;;;;;16.01;46.80;93126.44;4938813;28;20500;-90
2023/01/27 05:09:16;;;;;;;22.08;15.20;;;;;;;16.00;46.65;93116.75;4941636;29;20043;-91
2023/01/27 05:11:42;;;;;;;22.50;15.43;;;;;;;16.01;46.73;93121.72;4922040;28;20051;-91
2023/01/27 05:14:07;;;;;;;26.65;16.55;;;;;;;16.00;46.74;93127.66;4938116;28;20054;-90
2023/01/27 05:16:33;;;;;;;30.77;21.58;;;;;;;16.03;47.45;93132.09;4969978;28;20099;-90
2023/01/27 05:18:58;;;;;;;22.58;16.02;;;;;;;15.98;47.03;93125.44;4937739;28;20039;-90
2023/01/27 05:21:26;;;;;;;50.92;31.13;;;;;;;16.10;48.79;93126.13;4960109;28;20039;-91
2023/01/27 05:23:52;;;;;;;63.22;39.08;;;;;;;16.09;49.50;93133.56;4952063;28;20047;-91
2023/01/27 05:26:24;;;;;;;56.15;36.65;;;;;;;16.04;50.24;93106.31;4937440;28;20045;-90
2023/01/27 05:28:50;;;;;;;57.20;36.30;;;;;;;16.07;49.06;93108.78;4938143;28;20708;-90
2023/01/27 05:31:20;;;;;;;43.45;26.67;;;;;;;16.05;49.02;93108.53;4937555;28;20051;-91
2023/01/27 05:33:46;;;;;;;50.40;34.10;;;;;;;15.97;49.26;93120.50;4974294;28;20611;-90
2023/01/27 05:36:13;;;;;;;25.60;18.25;;;;;;;15.94;48.17;93111.34;4958383;28;20687;-90
2023/01/27 05:38:39;;;;;;;33.10;23.83;;;;;;;16.05;49.41;93121.44;4942827;28;20042;-90
2023/01/27 05:41:05;;;;;;;39.65;23.58;;;;;;;16.09;49.07;93121.91;4930296;28;20130;-90
2023/01/27 05:43:31;;;;;;;43.63;30.33;;;;;;;16.04;49.27;93120.69;4939464;28;20042;-91
2023/01/27 05:46:05;;;;;;;43.58;28.08;;;;;;;16.02;48.52;93123.19;4957805;28;20039;-90
2023/01/27 05:48:31;;;;;;;41.22;24.20;;;;;;;15.99;48.75;93116.03;4957629;28;20045;-90
2023/01/27 05:50:57;;;;;;;44.70;29.25;;;;;;;16.03;48.83;93132.84;4974312;28;20042;-91
2023/01/27 05:53:26;;;;;;;46.25;30.98;;;;;;;16.00;48.34;93133.13;4942025;28;20049;-91
2023/01/27 05:55:51;;;;;;;17.88;13.55;;;;;;;15.94;47.66;93135.13;4958199;28;20070;-91
2023/01/27 05:58:17;;;;;;;16.90;11.98;;;;;;;15.97;47.70;93145.03;4956500;28;20065;-90
2023/01/27 06:00:42;;;;;;;43.92;27.88;;;;;;;16.10;49.09;93145.22;4954310;28;20065;-90
2023/01/27 06:03:08;;;;;;;25.33;16.40;;;;;;;15.98;47.60;93149.97;4946112;28;20136;-91
2023/01/27 06:05:33;;;;;;;15.10;11.43;;;;;;;15.95;47.13;93150.25;4950716;28;20501;-90
2023/01/27 06:07:59;;;;;;;41.85;27.92;;;;;;;16.03;48.39;93153.91;4935820;28;20049;-91
2023/01/27 06:10:24;;;;;;;36.97;23.08;;;;;;;16.03;48.38;93157.38;4945785;28;20047;-92
2023/01/27 06:12:50;;;;;;;18.45;12.70;;;;;;;16.05;47.92;93165.06;4966575;28;20038;-91
2023/01/27 06:15:15;;;;;;;37.25;24.98;;;;;;;16.10;48.16;93167.03;4946670;28;20058;-90
2023/01/27 06:17:41;;;;;;;18.65;12.85;;;;;;;15.98;46.61;93165.59;4951178;28;20054;-91
2023/01/27 06:20:07;;;;;;;38.85;25.85;;;;;;;16.03;47.90;93165.56;4957622;28;20026;-92
2023/01/27 06:22:33;;;;;;;20.02;13.35;;;;;;;16.00;47.79;93165.84;4937993;28;20047;-92
2023/01/27 06:25:02;;;;;;;28.65;19.65;;;;;;;16.02;47.74;93174.25;4968825;28;20393;-91
2023/01/27 06:27:28;;;;;;;23.42;16.15;;;;;;;16.02;47.78;93169.53;4928738;28;20187;-91
2023/01/27 06:29:54;;;;;;;23.00;15.65;;;;;;;16.03;49.14;93175.72;4910953;28;20039;-91
2023/01/27 06:32:22;;;;;;;18.25;12.82;;;;;;;15.96;47.16;93165.34;4922940;28;20098;-91
2023/01/27 06:34:47;;;;;;;34.53;22.95;;;;;;;16.01;49.24;93164.59;4947301;28;20324;-92
2023/01/27 06:37:12;;;;;;;37.95;24.90;;;;;;;16.06;48.60;93169.28;4941187;28;20043;-90
2023/01/27 06:39:38;;;;;;;17.55;11.63;;;;;;;15.94;47.25;93176.75;4955161;28;20043;-92
2023/01/27 06:42:08;;;;;;;16.77;11.75;;;;;;;15.96;47.70;93176.25;4916683;29;20047;-93
2023/01/27 06:44:42;;;;;;;36.10;22.48;;;;;;;16.09;48.46;93173.72;4887699;29;20055;-94
2023/01/27 06:47:07;;;;;;;13.20;9.52;;;;;;;15.94;47.06;93174.03;4922014;29;20126;-92
2023/01/27 06:49:34;;;;;;;19.48;14.57;;;;;;;16.02;47.78;93182.44;4896986;29;20027;-92
2023/01/27 06:52:03;;;;;;;16.13;10.57;;;;;;;16.00;47.41;93187.66;4887273;29;20064;-92
2023/01/27 06:54:29;;;;;;;13.35;10.07;;;;;;;15.98;47.29;93185.41;4922913;29;20495;-93
2023/01/27 06:57:03;;;;;;;19.90;13.57;;;;;;;16.02;47.99;93185.16;4882263;29;20053;-92
2023/01/27 06:59:39;;;;;;;33.45;20.60;;;;;;;16.10;48.21;93192.31;4893174;29;20036;-91
2023/01/27 07:02:06;;;;;;;18.25;12.35;;;;;;;16.04;47.83;93190.84;4923180;29;20044;-93
2023/01/27 07:04:32;;;;;;;20.05;11.73;;;;;;;16.02;47.78;93190.63;4885237;29;20044;-92
2023/01/27 07:06:59;;;;;;;27.35;17.75;;;;;;;16.13;47.62;93200.75;4897027;29;20049;-92
2023/01/27 07:09:24;;;;;;;15.15;9.98;;;;;;;16.02;47.27;93199.50;4904138;29;20047;-92
2023/01/27 07:11:59;;;;;;;26.52;16.48;;;;;;;16.10;47.71;93199.75;4882825;29;20052;-92
2023/01/27 07:14:25;;;;;;;13.13;8.75;;;;;;;16.05;47.37;93205.97;4913617;29;20059;-94
2023/01/27 07:16:51;;;;;;;24.48;16.25;;;;;;;16.13;47.99;93204.22;4908628;29;20044;-93
2023/01/27 07:19:18;;;;;;;19.00;12.45;;;;;;;16.07;47.43;93201.50;4883922;29;20189;-93
2023/01/27 07:21:45;;;;;;;24.15;15.77;;;;;;;16.03;47.50;93201.00;4897909;29;20043;-93
2023/01/27 07:24:21;;;;;;;23.27;15.30;;;;;;;16.06;47.51;93205.47;4894043;29;20044;-94
2023/01/27 07:26:47;;;;;;;16.95;10.48;;;;;;;16.07;47.75;93211.66;4904113;29;20040;-92
2023/01/27 07:29:13;;;;;;;10.63;7.97;;;;;;;16.00;46.81;93210.22;4882532;29;20051;-92
2023/01/27 07:31:38;;;;;;;8.70;6.65;;;;;;;16.01;46.66;93205.50;4889300;29;20122;-91
2023/01/27 07:34:05;;;;;;;15.23;11.07;;;;;;;16.07;46.83;93211.66;4919532;29;20040;-92
2023/01/27 07:36:30;;;;;;;9.05;6.18;;;;;;;16.05;46.64;93203.97;4901589;29;20047;-92
2023/01/27 07:38:57;;;;;;;20.00;13.82;;;;;;;16.13;47.35;93215.13;4892686;29;20048;-91
2023/01/27 07:41:25;;;;;;;15.98;11.52;;;;;;;16.10;47.81;93213.38;4898921;29;20055;-93
2023/01/27 07:44:01;;;;;;;13.65;9.18;;;;;;;15.99;47.02;93221.59;4865391;29;20071;-93
2023/01/27 07:46:28;;;;;;;13.95;9.90;;;;;;;16.03;46.72;93222.81;4926574;28;20510;-93
2023/01/27 07:49:03;;;;;;;12.82;8.85;;;;;;;16.08;47.05;93210.41;4952366;28;20430;-93
2023/01/27 07:51:31;;;;;;;18.02;12.48;;;;;;;16.14;47.10;93211.16;4945700;28;20050;-94
2023/01/27 07:54:03;;;;;;;17.95;11.30;;;;;;;16.18;47.33;93208.16;4914040;28;20065;-95
2023/01/27 07:56:31;;;;;;;12.40;6.50;;;;;;;15.97;46.47;93216.66;4946230;28;20073;-94
2023/01/27 07:58:58;;;;;;;15.57;6.20;;;;;;;15.93;46.76;93221.63;4906375;28;20071;-94
2023/01/27 08:01:35;;;;;;;24.38;8.20;;;;;;;16.05;47.13;93231.25;4872991;29;20111;-93
2023/01/27 08:04:07;;;;;;;29.80;14.52;;;;;;;16.06;47.30;93227.28;4859284;29;20396;-94
2023/01/27 08:06:38;;;;;;;24.10;12.23;;;;;;;16.07;47.18;93225.28;4867020;29;20604;-92
2023/01/27 08:09:03;;;;;;;39.10;15.15;;;;;;;16.11;48.37;93226.53;4868463;29;20041;-94
2023/01/27 08:11:47;;;;;;;36.63;9.30;;;;;;;16.09;47.02;93223.53;4868638;29;20063;-94
2023/01/27 08:14:12;;;;;;;24.63;10.38;;;;;;;16.09;46.90;93225.53;4903234;29;20151;-93
2023/01/27 08:17:01;;;;;;;28.48;10.20;;;;;;;16.13;46.50;93223.28;4877184;29;20041;-94
2023/01/27 08:19:26;;;;;;;26.40;14.63;;;;;;;16.17;47.38;93226.50;4872696;29;20041;-94
2023/01/27 08:21:52;;;;;;;28.42;12.70;;;;;;;16.15;47.40;93222.78;4855731;29;20059;-92
2023/01/27 08:24:26;;;;;;;24.85;8.95;;;;;;;16.08;46.50;93213.13;4839696;29;20098;-94
2023/01/27 08:26:54;;;;;;;19.85;9.25;;;;;;;16.08;46.76;93216.59;4831094;29;20156;-94
2023/01/27 08:29:31;;;;;;;25.70;14.70;;;;;;;16.10;47.03;93229.75;4830654;29;20129;-93
2023/01/27 08:32:09;;;;;;;25.42;13.52;;;;;;;16.15;47.06;93225.53;4841251;29;20140;-94
2023/01/27 08:34:36;;;;;;;23.90;13.25;;;;;;;16.21;47.41;93218.81;4848139;29;20073;-96
2023/01/27 08:37:01;;;;;;;20.40;8.98;;;;;;;16.08;46.77;93227.50;4839847;29;20042;-94
2023/01/27 08:39:27;;;;;;;22.50;12.35;;;;;;;16.14;46.70;93211.16;4822019;29;20130;-94
2023/01/27 08:41:52;;;;;;;17.45;9.07;;;;;;;16.13;46.57;93215.13;4845748;29;20170;-92
2023/01/27 08:44:20;;;;;;;26.40;10.77;;;;;;;16.22;46.92;93211.38;4849810;29;20037;-94
2023/01/27 08:46:49;;;;;;;;;;;;;;;16.22;46.52;93214.84;4833086;29;20049;-93
2023/01/27 08:49:14;;;;;;;27.10;14.32;;;;;;;16.24;46.91;93214.34;4838452;29;20003;-94
2023/01/27 08:51:40;;;;;;;31.23;15.68;;;;;;;16.25;47.07;93219.28;4861509;29;20093;-94
2023/01/27 08:54:07;;;;;;;41.45;13.65;;;;;;;16.21;46.61;93215.34;4896644;29;20515;-94
2023/01/27 08:56:35;;;;;;;20.80;11.77;;;;;;;16.19;46.53;93213.13;4897549;29;20053;-94
2023/01/27 08:59:01;;;;;;;35.70;16.80;;;;;;;16.29;47.38;93208.13;4887887;29;20164;-94
2023/01/27 09:01:29;;;;;;;37.55;14.90;;;;;;;16.19;46.53;93220.56;4908426;29;20434;-94
2023/01/27 09:03:57;;;;;;;33.88;17.35;;;;;;;16.26;46.98;93218.03;4918801;29;20059;-95
2023/01/27 09:06:24;;;;;;;31.83;14.07;;;;;;;16.17;46.56;93226.50;4914131;29;20067;-95
2023/01/27 09:09:08;;;;;;;44.10;16.55;;;;;;;16.25;46.60;93237.63;4901066;29;20062;-94
2023/01/27 09:11:39;;;;;;;39.67;19.65;;;;;;;16.30;47.30;93228.69;4896318;29;20071;-94
2023/01/27 09:14:05;;;;;;;31.73;15.73;;;;;;;16.28;46.70;93236.63;4911906;29;20088;-95
2023/01/27 09:16:34;;;;;;;27.55;12.23;;;;;;;16.25;46.81;93234.91;4947682;28;20058;-94
2023/01/27 09:19:00;;;;;;;31.40;12.45;;;;;;;16.21;46.72;93234.44;4936039;29;20053;-94
2023/01/27 09:21:26;;;;;;;34.20;17.80;;;;;;;16.28;47.01;93240.09;4918147;29;20525;-93
2023/01/27 09:23:54;;;;;;;21.90;12.18;;;;;;;16.25;46.87;93240.34;4921545;29;20157;-93
2023/01/27 09:26:19;;;;;;;25.48;12.85;;;;;;;16.25;46.61;93246.56;4927446;29;20039;-92
2023/01/27 09:28:45;;;;;;;23.35;11.32;;;;;;;16.21;46.33;93248.06;4918677;29;20076;-90
2023/01/27 09:31:11;;;;;;;28.63;16.20;;;;;;;16.18;46.57;93249.06;4920551;29;20074;-91
2023/01/27 09:33:38;;;;;;;28.98;16.02;;;;;;;16.31;47.18;93249.28;4927111;29;20058;-94
2023/01/27 09:36:20;;;;;;;36.88;18.30;;;;;;;16.21;46.53;93248.06;4935006;29;20090;-93
2023/01/27 09:39:31;;;;;;;64.75;29.52;;;;;;;16.26;46.65;93258.22;4913151;29;20107;-95
2023/01/27 09:42:36;;;;;;;47.28;29.17;;;;;;;16.26;46.73;93256.22;4929882;29;20047;-94
2023/01/27 09:45:54;;;;;;;96.05;54.67;;;;;;;16.31;46.60;93260.94;4912650;29;20039;-93
2023/01/27 09:49:03;;;;;;;168.23;94.97;;;;;;;16.31;46.43;93241.09;4858730;29;20144;-93
2023/01/27 09:51:29;;;;;;;174.40;102.47;;;;;;;16.32;47.09;93248.03;4904662;29;20497;-93
2023/01/27 09:54:13;;;;;;;142.63;85.45;;;;;;;16.33;46.98;93258.44;4914124;29;20056;-93
2023/01/27 09:57:21;;;;;;;154.55;93.30;;;;;;;16.29;46.65;93257.22;4934954;29;20618;-95
2023/01/27 10:00:33;;;;;;;114.80;69.50;;;;;;;16.32;46.42;93259.69;4854834;29;20060;-95
2023/01/27 10:03:47;;;;;;;150.23;95.10;;;;;;;16.27;46.72;93251.50;4886563;29;20050;-95
2023/01/27 10:07:26;;;;;;;;;;;;;;;;;;;;;
2023/01/27 10:10:23;;;;;;;144.68;89.38;;;;;;;16.24;46.34;93247.78;4880837;29;22511;-95
2023/01/27 10:13:12;;;;;;;137.93;89.05;;;;;;;16.24;46.26;93239.63;4903611;29;20052;-92
2023/01/27 10:16:15;;;;;;;;;;;;;;;;;;;;;
2023/01/27 10:19:15;;;;;;;126.68;84.07;;;;;;;16.28;46.55;93242.09;4867454;29;20048;-94
2023/01/27 10:22:12;;;;;;;125.53;76.53;;;;;;;16.30;46.46;93248.53;4912104;29;20095;-94
2023/01/27 10:25:13;;;;;;;114.70;71.35;;;;;;;16.30;46.74;93240.34;4871402;29;20052;-94
2023/01/27 10:28:00;;;;;;;111.25;72.03;;;;;;;16.28;46.04;93244.81;4915789;29;20044;-95
2023/01/27 10:30:35;;;;;;;117.00;73.80;;;;;;;16.30;46.01;93240.34;4814145;29;20044;-92
2023/01/27 10:33:17;;;;;;;119.15;78.90;;;;;;;16.25;46.54;93234.91;4913298;29;20103;-93
2023/01/27 10:35:52;;;;;;;112.53;72.20;;;;;;;16.24;46.21;93244.34;4950311;28;20301;-93
2023/01/27 10:38:29;;;;;;;120.35;76.18;;;;;;;16.33;46.42;93235.88;4957875;28;20039;-95
2023/01/27 10:41:00;;;;;;;130.07;80.18;;;;;;;16.28;46.21;93242.81;4969156;28;20387;-91
2023/01/27 10:43:50;;;;;;;98.47;65.30;;;;;;;16.27;46.06;93229.69;4969722;28;20253;-92
2023/01/27 10:46:28;;;;;;;114.70;73.60;;;;;;;16.30;46.20;93236.88;4956068;28;21855;-95
2023/01/27 10:49:03;;;;;;;104.55;68.43;;;;;;;16.28;46.37;93234.66;4972361;28;20055;-89
2023/01/27 10:51:32;;;;;;;93.90;60.30;;;;;;;16.29;46.28;93238.84;4973718;28;20035;-94
2023/01/27 10:54:09;;;;;;;108.35;65.22;;;;;;;16.34;45.83;93231.91;4934180;28;20042;-93
2023/01/27 10:56:48;;;;;;;105.13;63.67;;;;;;;16.27;46.08;93235.88;4958095;28;20053;-91
2023/01/27 10:59:20;;;;;;;96.80;60.50;;;;;;;16.36;46.56;93235.63;4942441;28;20073;-94
2023/01/27 11:01:48;;;;;;;91.07;58.95;;;;;;;16.41;46.28;93229.41;4942565;28;20038;-92
2023/01/27 11:04:32;;;;;;;104.55;65.50;;;;;;;16.35;45.93;93233.38;4936378;28;20043;-93
2023/01/27 11:06:57;;;;;;;107.85;64.40;;;;;;;16.39;46.20;93237.34;4940152;28;20039;-95
2023/01/27 11:09:33;;;;;;;116.97;68.95;;;;;;;16.44;46.27;93233.88;4939685;28;20410;-94
2023/01/27 11:12:09;;;;;;;108.30;71.03;;;;;;;16.43;45.71;93235.09;4938663;28;20178;-94
2023/01/27 11:15:25;;;;;;;123.72;75.18;;;;;;;16.35;45.94;93225.22;4949059;28;20465;-93
2023/01/27 11:18:15;;;;;;;132.25;78.45;;;;;;;16.31;46.34;93233.66;4899004;29;20067;-93
2023/01/27 11:20:44;;;;;;;119.88;71.82;;;;;;;16.35;45.96;93234.13;4899613;29;20550;-94
2023/01/27 11:23:17;;;;;;;133.23;82.65;;;;;;;16.38;46.19;93232.41;4909789;29;20059;-95
2023/01/27 11:26:03;;;;;;;138.30;86.13;;;;;;;16.38;45.92;93227.69;4899610;29;20126;-93
2023/01/27 11:28:55;;;;;;;135.55;82.90;;;;;;;16.39;45.93;93231.91;4915040;29;20055;-93
2023/01/27 11:31:39;;;;;;;124.47;78.00;;;;;;;16.52;45.93;93227.88;4933116;29;20106;-93
2023/01/27 11:34:36;;;;;;;125.88;78.43;;;;;;;16.45;45.95;93231.88;4902687;29;20051;-91
2023/01/27 11:37:12;;;;;;;117.85;79.40;;;;;;;16.41;46.10;93228.66;4926955;29;20046;-93
2023/01/27 11:39:38;;;;;;;133.07;82.65;;;;;;;16.33;45.78;93224.97;4938840;29;20040;-90
2023/01/27 11:42:12;;;;;;;131.35;78.28;;;;;;;16.41;46.02;93221.22;4931227;29;20047;-93
2023/01/27 11:44:39;;;;;;;113.18;75.95;;;;;;;16.38;45.83;93222.22;4919653;29;20071;-92
2023/01/27 11:47:05;;;;;;;127.25;77.68;;;;;;;16.33;45.88;93225.72;4929226;29;20040;-93
2023/01/27 11:49:34;;;;;;;122.43;73.68;;;;;;;16.32;46.07;93221.50;4931558;29;20258;-93
2023/01/27 11:52:04;;;;;;;107.82;65.50;;;;;;;16.31;45.95;93232.91;4931493;29;20700;-93
2023/01/27 11:54:35;;;;;;;106.63;65.50;;;;;;;16.32;45.65;93231.66;4945320;28;20455;-94
2023/01/27 11:57:01;;;;;;;96.03;61.15;;;;;;;16.39;46.04;93225.69;4934287;29;20070;-94
2023/01/27 11:59:33;;;;;;;94.63;61.97;;;;;;;16.41;46.08;93225.94;4952208;28;20039;-93
2023/01/27 12:02:07;;;;;;;96.55;64.88;;;;;;;16.35;45.94;93225.94;4933190;28;20049;-93
2023/01/27 12:05:14;;;;;;;114.50;69.53;;;;;;;16.27;46.42;93218.78;4969139;28;20043;-91
2023/01/27 12:07:55;;;;;;;92.78;59.05;;;;;;;16.31;46.20;93222.00;4951788;28;20046;-94
2023/01/27 12:10:33;;;;;;;89.40;58.05;;;;;;;16.32;46.01;93220.75;4938238;28;20045;-95